N624ML CYQG-43IL
Flight info
| Callsign | N624ML |
|---|---|
| Flight time | 1h 34m |
| Altitude | 1500 |
| Route | CYQG/12 VFR |
| Aircraft | EC35/L-G/C |
Departure
| Time | 2026-04-27 20:28 |
|---|---|
| Airport | Windsor International Airport (CYQG) |
Arrival
| Time | 2026-04-27 22:02 |
|---|---|
| Airport | Vertiport Chicago Heliport (43IL) |
| Time | Latitude | Longitude | Altitude | Speed | Heading |
|---|---|---|---|---|---|
| 2026-04-27 20:20 | 42.26862 | -82.96610 | 621 ft | 0 kts | 244° |
| 2026-04-27 20:26 | 42.26863 | -82.96592 | 679 ft | 9 kts | 243° |
| 2026-04-27 20:26 | 42.26889 | -82.96547 | 823 ft | 14 kts | 99° |
| 2026-04-27 20:26 | 42.27059 | -82.96249 | 857 ft | 73 kts | 95° |
| 2026-04-27 20:26 | 42.26799 | -82.95503 | 901 ft | 87 kts | 120° |
| 2026-04-27 20:27 | 42.26256 | -82.95293 | 1073 ft | 98 kts | 187° |
| 2026-04-27 20:27 | 42.25745 | -82.95924 | 1183 ft | 117 kts | 239° |
| 2026-04-27 20:27 | 42.25797 | -82.97141 | 1097 ft | 136 kts | 281° |
| 2026-04-27 20:27 | 42.26029 | -82.98380 | 1131 ft | 135 kts | 280° |
| 2026-04-27 20:28 | 42.26260 | -82.99609 | 1238 ft | 129 kts | 279° |
| 2026-04-27 20:28 | 42.26523 | -83.00681 | 1503 ft | 117 kts | 281° |
| 2026-04-27 20:28 | 42.26799 | -83.01784 | 1579 ft | 128 kts | 281° |
| 2026-04-27 20:28 | 42.26991 | -83.02557 | 1765 ft | 131 kts | 281° |
| 2026-04-27 20:29 | 42.27435 | -83.04259 | 1762 ft | 151 kts | 282° |
| 2026-04-27 20:29 | 42.27779 | -83.05647 | 1751 ft | 153 kts | 281° |
| 2026-04-27 20:29 | 42.28122 | -83.07043 | 1693 ft | 155 kts | 281° |
| 2026-04-27 20:29 | 42.28460 | -83.08491 | 1584 ft | 160 kts | 280° |
| 2026-04-27 20:30 | 42.28791 | -83.09927 | 1571 ft | 156 kts | 280° |
| 2026-04-27 20:30 | 42.29125 | -83.11354 | 1546 ft | 155 kts | 281° |
| 2026-04-27 20:30 | 42.29460 | -83.12789 | 1553 ft | 152 kts | 281° |
| 2026-04-27 20:30 | 42.29796 | -83.14198 | 1547 ft | 152 kts | 281° |
| 2026-04-27 20:31 | 42.30116 | -83.15569 | 1549 ft | 151 kts | 279° |
| 2026-04-27 20:31 | 42.30441 | -83.16950 | 1543 ft | 153 kts | 281° |
| 2026-04-27 20:31 | 42.30757 | -83.18313 | 1584 ft | 149 kts | 281° |
| 2026-04-27 20:31 | 42.31070 | -83.19661 | 1564 ft | 151 kts | 281° |
| 2026-04-27 20:32 | 42.31382 | -83.21014 | 1621 ft | 149 kts | 281° |
| 2026-04-27 20:32 | 42.31710 | -83.22354 | 1655 ft | 150 kts | 281° |
| 2026-04-27 20:32 | 42.32032 | -83.23695 | 1666 ft | 153 kts | 282° |
| 2026-04-27 20:32 | 42.32373 | -83.25108 | 1629 ft | 155 kts | 279° |
| 2026-04-27 20:33 | 42.32702 | -83.26490 | 1618 ft | 152 kts | 280° |
| 2026-04-27 20:33 | 42.33025 | -83.27831 | 1731 ft | 146 kts | 281° |
| 2026-04-27 20:33 | 42.33364 | -83.28930 | 2349 ft | 119 kts | 283° |
| 2026-04-27 20:33 | 42.33717 | -83.29974 | 2579 ft | 131 kts | 283° |
| 2026-04-27 20:34 | 42.34162 | -83.31126 | 2620 ft | 141 kts | 290° |
| 2026-04-27 20:34 | 42.34722 | -83.32227 | 2599 ft | 138 kts | 288° |
| 2026-04-27 20:34 | 42.35135 | -83.33412 | 2342 ft | 149 kts | 278° |
| 2026-04-27 20:34 | 42.35234 | -83.34794 | 1916 ft | 151 kts | 250° |
| 2026-04-27 20:35 | 42.35026 | -83.36153 | 1688 ft | 145 kts | 249° |
| 2026-04-27 20:35 | 42.34842 | -83.37488 | 1558 ft | 147 kts | 251° |
| 2026-04-27 20:35 | 42.34710 | -83.38867 | 1508 ft | 145 kts | 252° |
| 2026-04-27 20:35 | 42.34576 | -83.40238 | 1500 ft | 145 kts | 254° |
| 2026-04-27 20:36 | 42.34432 | -83.41573 | 1498 ft | 144 kts | 254° |
| 2026-04-27 20:36 | 42.34278 | -83.42899 | 1503 ft | 144 kts | 253° |
| 2026-04-27 20:36 | 42.34136 | -83.44248 | 1495 ft | 145 kts | 256° |
| 2026-04-27 20:36 | 42.33985 | -83.45605 | 1493 ft | 144 kts | 253° |
| 2026-04-27 20:37 | 42.33834 | -83.46944 | 1488 ft | 145 kts | 255° |
| 2026-04-27 20:37 | 42.33673 | -83.48291 | 1482 ft | 145 kts | 253° |
| 2026-04-27 20:37 | 42.33519 | -83.49636 | 1491 ft | 144 kts | 254° |
| 2026-04-27 20:37 | 42.33373 | -83.50985 | 1488 ft | 144 kts | 254° |
| 2026-04-27 20:38 | 42.33235 | -83.52330 | 1493 ft | 145 kts | 255° |
| 2026-04-27 20:38 | 42.33089 | -83.53667 | 1502 ft | 143 kts | 256° |
| 2026-04-27 20:38 | 42.32941 | -83.55002 | 1485 ft | 144 kts | 254° |
| 2026-04-27 20:38 | 42.32805 | -83.56335 | 1493 ft | 143 kts | 255° |
| 2026-04-27 20:39 | 42.32667 | -83.57668 | 1493 ft | 144 kts | 254° |
| 2026-04-27 20:39 | 42.32527 | -83.59008 | 1438 ft | 146 kts | 254° |
| 2026-04-27 20:39 | 42.32386 | -83.60325 | 1470 ft | 144 kts | 256° |
| 2026-04-27 20:39 | 42.32241 | -83.61643 | 1508 ft | 140 kts | 254° |
| 2026-04-27 20:40 | 42.32111 | -83.62973 | 1478 ft | 143 kts | 255° |
| 2026-04-27 20:40 | 42.31965 | -83.64289 | 1486 ft | 144 kts | 256° |
| 2026-04-27 20:40 | 42.31856 | -83.65627 | 1490 ft | 143 kts | 257° |
| 2026-04-27 20:40 | 42.31760 | -83.66957 | 1487 ft | 143 kts | 257° |
| 2026-04-27 20:41 | 42.31662 | -83.68297 | 1484 ft | 145 kts | 257° |
| 2026-04-27 20:41 | 42.31553 | -83.69655 | 1481 ft | 145 kts | 255° |
| 2026-04-27 20:41 | 42.31437 | -83.71021 | 1485 ft | 145 kts | 256° |
| 2026-04-27 20:41 | 42.31329 | -83.72375 | 1469 ft | 146 kts | 256° |
| 2026-04-27 20:42 | 42.31226 | -83.73714 | 1484 ft | 145 kts | 256° |
| 2026-04-27 20:42 | 42.31114 | -83.75073 | 1484 ft | 144 kts | 257° |
| 2026-04-27 20:42 | 42.31000 | -83.76429 | 1472 ft | 145 kts | 258° |
| 2026-04-27 20:42 | 42.30903 | -83.77764 | 1481 ft | 143 kts | 257° |
| 2026-04-27 20:43 | 42.30795 | -83.79114 | 1470 ft | 144 kts | 256° |
| 2026-04-27 20:43 | 42.30692 | -83.80466 | 1468 ft | 144 kts | 257° |
| 2026-04-27 20:43 | 42.30577 | -83.81832 | 1480 ft | 144 kts | 257° |
| 2026-04-27 20:43 | 42.30475 | -83.83159 | 1485 ft | 143 kts | 257° |
| 2026-04-27 20:44 | 42.30383 | -83.84527 | 1471 ft | 147 kts | 256° |
| 2026-04-27 20:44 | 42.30275 | -83.85871 | 1473 ft | 146 kts | 257° |
| 2026-04-27 20:44 | 42.30169 | -83.87248 | 1465 ft | 146 kts | 256° |
| 2026-04-27 20:44 | 42.30053 | -83.88614 | 1459 ft | 146 kts | 256° |
| 2026-04-27 20:45 | 42.29937 | -83.89980 | 1447 ft | 146 kts | 259° |
| 2026-04-27 20:45 | 42.29819 | -83.91318 | 1457 ft | 145 kts | 257° |
| 2026-04-27 20:45 | 42.29702 | -83.92673 | 1454 ft | 146 kts | 258° |
| 2026-04-27 20:45 | 42.29573 | -83.94064 | 1455 ft | 149 kts | 258° |
| 2026-04-27 20:46 | 42.29453 | -83.95454 | 1454 ft | 152 kts | 257° |
| 2026-04-27 20:46 | 42.29338 | -83.96870 | 1453 ft | 151 kts | 257° |
| 2026-04-27 20:46 | 42.29202 | -83.98285 | 1453 ft | 150 kts | 256° |
| 2026-04-27 20:46 | 42.29075 | -83.99684 | 1450 ft | 151 kts | 256° |
| 2026-04-27 20:47 | 42.28951 | -84.01086 | 1455 ft | 149 kts | 258° |
| 2026-04-27 20:47 | 42.28818 | -84.02490 | 1452 ft | 149 kts | 257° |
| 2026-04-27 20:47 | 42.28669 | -84.03876 | 1447 ft | 150 kts | 256° |
| 2026-04-27 20:47 | 42.28528 | -84.05263 | 1454 ft | 151 kts | 256° |
| 2026-04-27 20:48 | 42.28400 | -84.06666 | 1458 ft | 149 kts | 256° |
| 2026-04-27 20:48 | 42.28318 | -84.07584 | 1454 ft | 147 kts | 257° |
| 2026-04-27 20:48 | 42.28151 | -84.09404 | 1461 ft | 147 kts | 258° |
| 2026-04-27 20:48 | 42.28022 | -84.10774 | 1457 ft | 145 kts | 257° |
| 2026-04-27 20:49 | 42.27858 | -84.12125 | 1458 ft | 145 kts | 254° |
| 2026-04-27 20:49 | 42.27605 | -84.13428 | 1454 ft | 144 kts | 248° |
| 2026-04-27 20:49 | 42.27298 | -84.14728 | 1445 ft | 145 kts | 247° |
| 2026-04-27 20:49 | 42.26981 | -84.16025 | 1445 ft | 145 kts | 248° |
| 2026-04-27 20:50 | 42.26663 | -84.17316 | 1449 ft | 144 kts | 246° |
| 2026-04-27 20:50 | 42.26356 | -84.18588 | 1454 ft | 144 kts | 248° |
| 2026-04-27 20:50 | 42.26046 | -84.19894 | 1449 ft | 145 kts | 246° |
| 2026-04-27 20:50 | 42.25746 | -84.21183 | 1437 ft | 145 kts | 247° |
| 2026-04-27 20:51 | 42.25437 | -84.22471 | 1446 ft | 144 kts | 248° |
| 2026-04-27 20:51 | 42.25122 | -84.23760 | 1432 ft | 144 kts | 247° |
| 2026-04-27 20:51 | 42.24806 | -84.25041 | 1430 ft | 144 kts | 247° |
| 2026-04-27 20:51 | 42.24484 | -84.26327 | 1429 ft | 143 kts | 247° |
| 2026-04-27 20:52 | 42.24169 | -84.27600 | 1429 ft | 144 kts | 247° |
| 2026-04-27 20:52 | 42.23850 | -84.28869 | 1434 ft | 144 kts | 247° |
| 2026-04-27 20:52 | 42.23530 | -84.30151 | 1438 ft | 144 kts | 247° |
| 2026-04-27 20:52 | 42.23209 | -84.31434 | 1437 ft | 144 kts | 247° |
| 2026-04-27 20:53 | 42.22890 | -84.32716 | 1437 ft | 145 kts | 247° |
| 2026-04-27 20:53 | 42.22570 | -84.34001 | 1434 ft | 144 kts | 247° |
| 2026-04-27 20:53 | 42.22245 | -84.35287 | 1440 ft | 144 kts | 247° |
| 2026-04-27 20:53 | 42.21927 | -84.36560 | 1441 ft | 144 kts | 248° |
| 2026-04-27 20:54 | 42.21275 | -84.39124 | 1442 ft | 144 kts | 248° |
| 2026-04-27 20:54 | 42.20953 | -84.40389 | 1433 ft | 145 kts | 247° |
| 2026-04-27 20:54 | 42.20633 | -84.41663 | 1457 ft | 144 kts | 246° |
| 2026-04-27 20:55 | 42.20306 | -84.42953 | 1433 ft | 144 kts | 246° |
| 2026-04-27 20:55 | 42.19997 | -84.44190 | 1434 ft | 144 kts | 246° |
| 2026-04-27 20:55 | 42.19690 | -84.45445 | 1425 ft | 144 kts | 247° |
| 2026-04-27 20:55 | 42.19389 | -84.46676 | 1430 ft | 143 kts | 247° |
| 2026-04-27 20:56 | 42.19076 | -84.47961 | 1425 ft | 144 kts | 248° |
| 2026-04-27 20:56 | 42.18756 | -84.49242 | 1423 ft | 145 kts | 248° |
| 2026-04-27 20:56 | 42.18439 | -84.50523 | 1432 ft | 145 kts | 247° |
| 2026-04-27 20:56 | 42.18127 | -84.51812 | 1424 ft | 146 kts | 247° |
| 2026-04-27 20:57 | 42.17817 | -84.53114 | 1430 ft | 146 kts | 247° |
| 2026-04-27 20:57 | 42.17508 | -84.54417 | 1430 ft | 146 kts | 247° |
| 2026-04-27 20:57 | 42.17197 | -84.55724 | 1419 ft | 146 kts | 248° |
| 2026-04-27 20:57 | 42.16911 | -84.57037 | 1418 ft | 146 kts | 251° |
| 2026-04-27 20:58 | 42.16665 | -84.58353 | 1421 ft | 145 kts | 252° |
| 2026-04-27 20:58 | 42.16414 | -84.59678 | 1406 ft | 146 kts | 251° |
| 2026-04-27 20:58 | 42.16162 | -84.60984 | 1419 ft | 144 kts | 251° |
| 2026-04-27 20:58 | 42.15906 | -84.62295 | 1413 ft | 144 kts | 251° |
| 2026-04-27 20:59 | 42.15658 | -84.63602 | 1402 ft | 145 kts | 251° |
| 2026-04-27 20:59 | 42.15412 | -84.64916 | 1417 ft | 144 kts | 251° |
| 2026-04-27 20:59 | 42.15167 | -84.66222 | 1429 ft | 144 kts | 251° |
| 2026-04-27 20:59 | 42.14921 | -84.67531 | 1415 ft | 145 kts | 251° |
| 2026-04-27 21:00 | 42.14675 | -84.68832 | 1414 ft | 143 kts | 251° |
| 2026-04-27 21:00 | 42.14426 | -84.70136 | 1415 ft | 142 kts | 251° |
| 2026-04-27 21:00 | 42.14177 | -84.71422 | 1410 ft | 141 kts | 251° |
| 2026-04-27 21:00 | 42.13929 | -84.72685 | 1401 ft | 140 kts | 251° |
| 2026-04-27 21:01 | 42.13681 | -84.73943 | 1406 ft | 139 kts | 251° |
| 2026-04-27 21:01 | 42.13436 | -84.75204 | 1407 ft | 139 kts | 251° |
| 2026-04-27 21:01 | 42.13194 | -84.76472 | 1406 ft | 139 kts | 252° |
| 2026-04-27 21:01 | 42.12952 | -84.77738 | 1409 ft | 140 kts | 251° |
| 2026-04-27 21:02 | 42.12709 | -84.78996 | 1403 ft | 139 kts | 251° |
| 2026-04-27 21:02 | 42.12462 | -84.80267 | 1399 ft | 139 kts | 251° |
| 2026-04-27 21:02 | 42.12222 | -84.81514 | 1402 ft | 138 kts | 251° |
| 2026-04-27 21:02 | 42.11979 | -84.82765 | 1401 ft | 138 kts | 251° |
| 2026-04-27 21:03 | 42.11740 | -84.84011 | 1392 ft | 137 kts | 251° |
| 2026-04-27 21:03 | 42.11506 | -84.85256 | 1373 ft | 135 kts | 251° |
| 2026-04-27 21:03 | 42.11268 | -84.86478 | 1398 ft | 133 kts | 251° |
| 2026-04-27 21:03 | 42.11034 | -84.87677 | 1413 ft | 134 kts | 251° |
| 2026-04-27 21:04 | 42.10796 | -84.88887 | 1412 ft | 134 kts | 252° |
| 2026-04-27 21:04 | 42.10561 | -84.90099 | 1414 ft | 132 kts | 251° |
| 2026-04-27 21:04 | 42.10324 | -84.91310 | 1422 ft | 133 kts | 252° |
| 2026-04-27 21:04 | 42.10094 | -84.92498 | 1433 ft | 133 kts | 251° |
| 2026-04-27 21:05 | 42.09848 | -84.93739 | 1380 ft | 134 kts | 252° |
| 2026-04-27 21:05 | 42.09610 | -84.94939 | 1289 ft | 136 kts | 252° |
| 2026-04-27 21:05 | 42.09365 | -84.96142 | 1411 ft | 128 kts | 251° |
| 2026-04-27 21:05 | 42.09135 | -84.97329 | 1408 ft | 132 kts | 251° |
| 2026-04-27 21:06 | 42.08902 | -84.98522 | 1405 ft | 131 kts | 251° |
| 2026-04-27 21:06 | 42.08671 | -84.99721 | 1403 ft | 131 kts | 252° |
| 2026-04-27 21:06 | 42.08438 | -85.00915 | 1399 ft | 134 kts | 252° |
| 2026-04-27 21:06 | 42.08205 | -85.02123 | 1401 ft | 132 kts | 251° |
| 2026-04-27 21:07 | 42.07980 | -85.03296 | 1401 ft | 131 kts | 252° |
| 2026-04-27 21:07 | 42.07745 | -85.04499 | 1394 ft | 134 kts | 251° |
| 2026-04-27 21:07 | 42.07506 | -85.05711 | 1396 ft | 134 kts | 251° |
| 2026-04-27 21:07 | 42.07267 | -85.06930 | 1396 ft | 135 kts | 251° |
| 2026-04-27 21:08 | 42.07033 | -85.08151 | 1395 ft | 136 kts | 252° |
| 2026-04-27 21:08 | 42.06793 | -85.09400 | 1395 ft | 137 kts | 252° |
| 2026-04-27 21:08 | 42.06559 | -85.10628 | 1397 ft | 138 kts | 251° |
| 2026-04-27 21:08 | 42.06328 | -85.11889 | 1393 ft | 138 kts | 252° |
| 2026-04-27 21:09 | 42.06103 | -85.13149 | 1401 ft | 137 kts | 252° |
| 2026-04-27 21:09 | 42.05882 | -85.14395 | 1389 ft | 138 kts | 252° |
| 2026-04-27 21:09 | 42.05663 | -85.15641 | 1393 ft | 135 kts | 251° |
| 2026-04-27 21:09 | 42.05449 | -85.16859 | 1387 ft | 133 kts | 252° |
| 2026-04-27 21:10 | 42.05229 | -85.18070 | 1388 ft | 133 kts | 250° |
| 2026-04-27 21:10 | 42.04998 | -85.19277 | 1386 ft | 133 kts | 250° |
| 2026-04-27 21:10 | 42.04764 | -85.20484 | 1383 ft | 134 kts | 250° |
| 2026-04-27 21:10 | 42.04527 | -85.21708 | 1381 ft | 134 kts | 250° |
| 2026-04-27 21:11 | 42.04293 | -85.22914 | 1383 ft | 134 kts | 250° |
| 2026-04-27 21:11 | 42.04057 | -85.24146 | 1379 ft | 136 kts | 249° |
| 2026-04-27 21:11 | 42.03830 | -85.25370 | 1381 ft | 136 kts | 250° |
| 2026-04-27 21:11 | 42.03609 | -85.26612 | 1374 ft | 137 kts | 250° |
| 2026-04-27 21:12 | 42.03387 | -85.27854 | 1370 ft | 138 kts | 250° |
| 2026-04-27 21:12 | 42.03159 | -85.29121 | 1367 ft | 139 kts | 250° |
| 2026-04-27 21:12 | 42.02937 | -85.30381 | 1381 ft | 139 kts | 250° |
| 2026-04-27 21:12 | 42.02713 | -85.31641 | 1374 ft | 138 kts | 250° |
| 2026-04-27 21:13 | 42.02486 | -85.32903 | 1371 ft | 137 kts | 249° |
| 2026-04-27 21:13 | 42.02269 | -85.34155 | 1368 ft | 137 kts | 250° |
| 2026-04-27 21:13 | 42.02047 | -85.35397 | 1362 ft | 138 kts | 251° |
| 2026-04-27 21:13 | 42.01826 | -85.36665 | 1353 ft | 139 kts | 250° |
| 2026-04-27 21:14 | 42.01618 | -85.37932 | 1350 ft | 140 kts | 249° |
| 2026-04-27 21:14 | 42.01419 | -85.39218 | 1353 ft | 141 kts | 250° |
| 2026-04-27 21:14 | 42.01221 | -85.40507 | 1347 ft | 142 kts | 251° |
| 2026-04-27 21:14 | 42.01028 | -85.41804 | 1335 ft | 142 kts | 251° |
| 2026-04-27 21:15 | 42.00757 | -85.43066 | 1344 ft | 139 kts | 244° |
| 2026-04-27 21:15 | 42.00467 | -85.44308 | 1341 ft | 140 kts | 242° |
| 2026-04-27 21:15 | 42.00184 | -85.45554 | 1336 ft | 139 kts | 244° |
| 2026-04-27 21:15 | 41.99896 | -85.46800 | 1350 ft | 139 kts | 243° |
| 2026-04-27 21:16 | 41.99616 | -85.48035 | 1344 ft | 140 kts | 242° |
| 2026-04-27 21:16 | 41.99327 | -85.49289 | 1349 ft | 139 kts | 242° |
| 2026-04-27 21:16 | 41.99034 | -85.50525 | 1347 ft | 138 kts | 242° |
| 2026-04-27 21:16 | 41.98747 | -85.51749 | 1341 ft | 137 kts | 244° |
| 2026-04-27 21:17 | 41.98461 | -85.52963 | 1347 ft | 137 kts | 242° |
| 2026-04-27 21:17 | 41.98173 | -85.54195 | 1347 ft | 138 kts | 243° |
| 2026-04-27 21:17 | 41.97901 | -85.55408 | 1347 ft | 138 kts | 242° |
| 2026-04-27 21:17 | 41.97620 | -85.56641 | 1350 ft | 139 kts | 243° |
| 2026-04-27 21:18 | 41.97340 | -85.57891 | 1338 ft | 140 kts | 244° |
| 2026-04-27 21:18 | 41.97072 | -85.59146 | 1334 ft | 140 kts | 242° |
| 2026-04-27 21:18 | 41.96804 | -85.60404 | 1332 ft | 140 kts | 245° |
| 2026-04-27 21:18 | 41.96531 | -85.61657 | 1330 ft | 139 kts | 244° |
| 2026-04-27 21:19 | 41.96278 | -85.62920 | 1328 ft | 141 kts | 244° |
| 2026-04-27 21:19 | 41.96024 | -85.64188 | 1333 ft | 140 kts | 244° |
| 2026-04-27 21:19 | 41.95773 | -85.65457 | 1325 ft | 141 kts | 244° |
| 2026-04-27 21:20 | 41.95271 | -85.67983 | 1320 ft | 141 kts | 243° |
| 2026-04-27 21:20 | 41.95003 | -85.69260 | 1324 ft | 141 kts | 243° |
| 2026-04-27 21:20 | 41.94750 | -85.70541 | 1326 ft | 141 kts | 244° |
| 2026-04-27 21:20 | 41.94498 | -85.71797 | 1312 ft | 142 kts | 245° |
| 2026-04-27 21:21 | 41.94255 | -85.73071 | 1317 ft | 141 kts | 242° |
| 2026-04-27 21:21 | 41.94011 | -85.74356 | 1317 ft | 143 kts | 242° |
| 2026-04-27 21:21 | 41.93785 | -85.75630 | 1305 ft | 143 kts | 245° |
| 2026-04-27 21:21 | 41.93539 | -85.76926 | 1303 ft | 143 kts | 244° |
| 2026-04-27 21:22 | 41.93295 | -85.78198 | 1324 ft | 141 kts | 244° |
| 2026-04-27 21:22 | 41.93039 | -85.79485 | 1335 ft | 140 kts | 245° |
| 2026-04-27 21:22 | 41.92771 | -85.80742 | 1322 ft | 140 kts | 243° |
| 2026-04-27 21:22 | 41.92511 | -85.81975 | 1325 ft | 138 kts | 243° |
| 2026-04-27 21:23 | 41.92247 | -85.83231 | 1324 ft | 139 kts | 243° |
| 2026-04-27 21:23 | 41.91989 | -85.84487 | 1318 ft | 139 kts | 242° |
| 2026-04-27 21:23 | 41.91742 | -85.85747 | 1309 ft | 142 kts | 243° |
| 2026-04-27 21:23 | 41.91507 | -85.87038 | 1299 ft | 142 kts | 245° |
| 2026-04-27 21:24 | 41.91271 | -85.88334 | 1293 ft | 142 kts | 246° |
| 2026-04-27 21:24 | 41.91033 | -85.89604 | 1304 ft | 141 kts | 244° |
| 2026-04-27 21:24 | 41.90785 | -85.90891 | 1302 ft | 141 kts | 246° |
| 2026-04-27 21:24 | 41.90529 | -85.92151 | 1298 ft | 142 kts | 244° |
| 2026-04-27 21:25 | 41.90287 | -85.93436 | 1293 ft | 141 kts | 242° |
| 2026-04-27 21:25 | 41.90051 | -85.94707 | 1290 ft | 141 kts | 244° |
| 2026-04-27 21:25 | 41.89819 | -85.95983 | 1289 ft | 142 kts | 243° |
| 2026-04-27 21:25 | 41.89606 | -85.97272 | 1290 ft | 144 kts | 243° |
| 2026-04-27 21:26 | 41.89420 | -85.98597 | 1291 ft | 143 kts | 246° |
| 2026-04-27 21:26 | 41.89220 | -85.99915 | 1293 ft | 144 kts | 244° |
| 2026-04-27 21:26 | 41.88987 | -86.01205 | 1301 ft | 140 kts | 237° |
| 2026-04-27 21:26 | 41.88702 | -86.02443 | 1296 ft | 139 kts | 237° |
| 2026-04-27 21:27 | 41.88406 | -86.03690 | 1302 ft | 140 kts | 235° |
| 2026-04-27 21:27 | 41.88123 | -86.04945 | 1289 ft | 141 kts | 237° |
| 2026-04-27 21:27 | 41.87847 | -86.06207 | 1290 ft | 140 kts | 236° |
| 2026-04-27 21:27 | 41.87559 | -86.07453 | 1297 ft | 139 kts | 237° |
| 2026-04-27 21:28 | 41.87261 | -86.08688 | 1294 ft | 140 kts | 236° |
| 2026-04-27 21:28 | 41.86969 | -86.09922 | 1288 ft | 139 kts | 236° |
| 2026-04-27 21:28 | 41.86675 | -86.11175 | 1298 ft | 140 kts | 238° |
| 2026-04-27 21:28 | 41.86397 | -86.12434 | 1281 ft | 143 kts | 236° |
| 2026-04-27 21:29 | 41.86152 | -86.13718 | 1268 ft | 141 kts | 238° |
| 2026-04-27 21:29 | 41.85902 | -86.14998 | 1269 ft | 140 kts | 240° |
| 2026-04-27 21:29 | 41.85619 | -86.16225 | 1263 ft | 141 kts | 236° |
| 2026-04-27 21:29 | 41.85329 | -86.17499 | 1277 ft | 144 kts | 240° |
| 2026-04-27 21:30 | 41.85062 | -86.18793 | 1287 ft | 145 kts | 240° |
| 2026-04-27 21:30 | 41.84800 | -86.20106 | 1276 ft | 144 kts | 236° |
| 2026-04-27 21:30 | 41.84547 | -86.21393 | 1268 ft | 142 kts | 242° |
| 2026-04-27 21:30 | 41.84301 | -86.22626 | 1486 ft | 134 kts | 239° |
| 2026-04-27 21:31 | 41.84084 | -86.23865 | 1493 ft | 138 kts | 237° |
| 2026-04-27 21:31 | 41.83830 | -86.25132 | 1486 ft | 139 kts | 239° |
| 2026-04-27 21:31 | 41.83571 | -86.26384 | 1498 ft | 142 kts | 233° |
| 2026-04-27 21:31 | 41.83321 | -86.27652 | 1503 ft | 143 kts | 236° |
| 2026-04-27 21:32 | 41.83070 | -86.28956 | 1508 ft | 143 kts | 239° |
| 2026-04-27 21:32 | 41.82790 | -86.30200 | 1492 ft | 140 kts | 232° |
| 2026-04-27 21:32 | 41.82547 | -86.31477 | 1504 ft | 141 kts | 232° |
| 2026-04-27 21:32 | 41.82296 | -86.32747 | 1497 ft | 139 kts | 239° |
| 2026-04-27 21:33 | 41.82047 | -86.34015 | 1469 ft | 141 kts | 238° |
| 2026-04-27 21:33 | 41.81795 | -86.35258 | 1500 ft | 142 kts | 236° |
| 2026-04-27 21:33 | 41.81521 | -86.36503 | 1505 ft | 137 kts | 235° |
| 2026-04-27 21:33 | 41.81272 | -86.37750 | 1475 ft | 139 kts | 241° |
| 2026-04-27 21:34 | 41.80998 | -86.38990 | 1492 ft | 141 kts | 236° |
| 2026-04-27 21:34 | 41.80742 | -86.40263 | 1511 ft | 141 kts | 237° |
| 2026-04-27 21:34 | 41.80454 | -86.41485 | 1496 ft | 125 kts | 234° |
| 2026-04-27 21:34 | 41.80236 | -86.42644 | 1494 ft | 140 kts | 235° |
| 2026-04-27 21:35 | 41.79967 | -86.43886 | 1527 ft | 133 kts | 232° |
| 2026-04-27 21:35 | 41.79646 | -86.45070 | 1548 ft | 136 kts | 227° |
| 2026-04-27 21:35 | 41.79350 | -86.46317 | 1458 ft | 143 kts | 236° |
| 2026-04-27 21:35 | 41.79048 | -86.47545 | 1498 ft | 137 kts | 236° |
| 2026-04-27 21:36 | 41.78784 | -86.48816 | 1484 ft | 144 kts | 241° |
| 2026-04-27 21:36 | 41.78552 | -86.50083 | 1487 ft | 143 kts | 240° |
| 2026-04-27 21:36 | 41.78364 | -86.51412 | 1474 ft | 145 kts | 244° |
| 2026-04-27 21:36 | 41.78138 | -86.52684 | 1505 ft | 140 kts | 238° |
| 2026-04-27 21:37 | 41.77924 | -86.53986 | 1494 ft | 142 kts | 242° |
| 2026-04-27 21:37 | 41.77717 | -86.55323 | 1505 ft | 149 kts | 239° |
| 2026-04-27 21:37 | 41.77527 | -86.56640 | 1491 ft | 141 kts | 240° |
| 2026-04-27 21:37 | 41.77348 | -86.57908 | 1499 ft | 142 kts | 242° |
| 2026-04-27 21:38 | 41.77105 | -86.59173 | 1496 ft | 138 kts | 238° |
| 2026-04-27 21:38 | 41.76857 | -86.60427 | 1482 ft | 139 kts | 237° |
| 2026-04-27 21:38 | 41.76565 | -86.61642 | 1476 ft | 136 kts | 232° |
| 2026-04-27 21:38 | 41.76295 | -86.62861 | 1473 ft | 139 kts | 234° |
| 2026-04-27 21:39 | 41.76041 | -86.64150 | 1464 ft | 140 kts | 242° |
| 2026-04-27 21:39 | 41.75742 | -86.65355 | 1473 ft | 132 kts | 233° |
| 2026-04-27 21:39 | 41.75467 | -86.66538 | 1498 ft | 136 kts | 229° |
| 2026-04-27 21:39 | 41.75222 | -86.67790 | 1505 ft | 136 kts | 238° |
| 2026-04-27 21:40 | 41.74947 | -86.68979 | 1511 ft | 130 kts | 234° |
| 2026-04-27 21:40 | 41.74653 | -86.70158 | 1499 ft | 134 kts | 230° |
| 2026-04-27 21:40 | 41.74372 | -86.71339 | 1495 ft | 130 kts | 232° |
| 2026-04-27 21:40 | 41.74102 | -86.72485 | 1487 ft | 130 kts | 236° |
| 2026-04-27 21:41 | 41.73815 | -86.73659 | 1486 ft | 131 kts | 235° |
| 2026-04-27 21:41 | 41.73568 | -86.74863 | 1486 ft | 135 kts | 236° |
| 2026-04-27 21:41 | 41.73286 | -86.76032 | 1494 ft | 129 kts | 238° |
| 2026-04-27 21:41 | 41.73026 | -86.77168 | 1499 ft | 127 kts | 232° |
| 2026-04-27 21:42 | 41.72782 | -86.78346 | 1491 ft | 128 kts | 237° |
| 2026-04-27 21:42 | 41.72519 | -86.79488 | 1494 ft | 135 kts | 238° |
| 2026-04-27 21:42 | 41.72181 | -86.80649 | 1493 ft | 129 kts | 234° |
| 2026-04-27 21:42 | 41.71870 | -86.81761 | 1498 ft | 129 kts | 237° |
| 2026-04-27 21:43 | 41.71566 | -86.82907 | 1479 ft | 131 kts | 234° |
| 2026-04-27 21:43 | 41.71262 | -86.84090 | 1477 ft | 137 kts | 234° |
| 2026-04-27 21:43 | 41.70987 | -86.85267 | 1505 ft | 133 kts | 238° |
| 2026-04-27 21:43 | 41.70689 | -86.86391 | 1500 ft | 130 kts | 232° |
| 2026-04-27 21:44 | 41.70383 | -86.87546 | 1498 ft | 127 kts | 234° |
| 2026-04-27 21:44 | 41.70068 | -86.88695 | 1496 ft | 135 kts | 233° |
| 2026-04-27 21:44 | 41.69751 | -86.89838 | 1491 ft | 127 kts | 230° |
| 2026-04-27 21:44 | 41.69461 | -86.90969 | 1485 ft | 126 kts | 231° |
| 2026-04-27 21:45 | 41.69174 | -86.92104 | 1486 ft | 130 kts | 235° |
| 2026-04-27 21:45 | 41.68877 | -86.93249 | 1499 ft | 133 kts | 235° |
| 2026-04-27 21:45 | 41.68558 | -86.94366 | 1510 ft | 133 kts | 233° |
| 2026-04-27 21:45 | 41.68247 | -86.95506 | 1499 ft | 132 kts | 234° |
| 2026-04-27 21:46 | 41.67961 | -86.96664 | 1509 ft | 133 kts | 238° |
| 2026-04-27 21:46 | 41.67645 | -86.97826 | 1486 ft | 130 kts | 236° |
| 2026-04-27 21:46 | 41.67337 | -86.98938 | 1489 ft | 126 kts | 236° |
| 2026-04-27 21:46 | 41.67019 | -87.00062 | 1477 ft | 132 kts | 233° |
| 2026-04-27 21:47 | 41.66714 | -87.01215 | 1480 ft | 129 kts | 234° |
| 2026-04-27 21:47 | 41.66382 | -87.02303 | 1488 ft | 127 kts | 234° |
| 2026-04-27 21:47 | 41.66069 | -87.03416 | 1485 ft | 127 kts | 232° |
| 2026-04-27 21:47 | 41.65787 | -87.04539 | 1478 ft | 127 kts | 234° |
| 2026-04-27 21:48 | 41.65458 | -87.05646 | 1481 ft | 129 kts | 229° |
| 2026-04-27 21:48 | 41.65179 | -87.06773 | 1482 ft | 130 kts | 235° |
| 2026-04-27 21:48 | 41.64919 | -87.07917 | 1480 ft | 130 kts | 233° |
| 2026-04-27 21:48 | 41.64674 | -87.09123 | 1472 ft | 132 kts | 237° |
| 2026-04-27 21:49 | 41.64441 | -87.10281 | 1493 ft | 129 kts | 239° |
| 2026-04-27 21:49 | 41.64192 | -87.11446 | 1467 ft | 129 kts | 237° |
| 2026-04-27 21:49 | 41.63947 | -87.12588 | 1484 ft | 127 kts | 238° |
| 2026-04-27 21:49 | 41.63674 | -87.13734 | 1472 ft | 131 kts | 232° |
| 2026-04-27 21:50 | 41.63450 | -87.14913 | 1473 ft | 131 kts | 235° |
| 2026-04-27 21:50 | 41.63229 | -87.16078 | 1474 ft | 130 kts | 237° |
| 2026-04-27 21:50 | 41.63029 | -87.17258 | 1475 ft | 131 kts | 245° |
| 2026-04-27 21:50 | 41.62844 | -87.18452 | 1469 ft | 129 kts | 239° |
| 2026-04-27 21:51 | 41.62712 | -87.19686 | 1457 ft | 130 kts | 244° |
| 2026-04-27 21:51 | 41.62575 | -87.20888 | 1461 ft | 129 kts | 239° |
| 2026-04-27 21:51 | 41.62411 | -87.22077 | 1458 ft | 131 kts | 242° |
| 2026-04-27 21:51 | 41.62297 | -87.23325 | 1451 ft | 135 kts | 251° |
| 2026-04-27 21:52 | 41.62246 | -87.24583 | 1457 ft | 136 kts | 255° |
| 2026-04-27 21:52 | 41.62197 | -87.25838 | 1462 ft | 139 kts | 250° |
| 2026-04-27 21:52 | 41.62168 | -87.27047 | 1463 ft | 137 kts | 249° |
| 2026-04-27 21:52 | 41.62123 | -87.28286 | 1453 ft | 141 kts | 250° |
| 2026-04-27 21:53 | 41.62160 | -87.29627 | 1465 ft | 143 kts | 253° |
| 2026-04-27 21:53 | 41.62221 | -87.30942 | 1466 ft | 140 kts | 255° |
| 2026-04-27 21:53 | 41.62265 | -87.32267 | 1453 ft | 144 kts | 260° |
| 2026-04-27 21:53 | 41.62423 | -87.33624 | 1448 ft | 149 kts | 267° |
| 2026-04-27 21:54 | 41.62697 | -87.34959 | 1469 ft | 150 kts | 271° |
| 2026-04-27 21:54 | 41.63028 | -87.36301 | 1457 ft | 153 kts | 278° |
| 2026-04-27 21:54 | 41.63333 | -87.37638 | 1466 ft | 150 kts | 270° |
| 2026-04-27 21:54 | 41.63697 | -87.39008 | 1472 ft | 154 kts | 273° |
| 2026-04-27 21:55 | 41.64057 | -87.40356 | 1469 ft | 151 kts | 274° |
| 2026-04-27 21:55 | 41.64374 | -87.41693 | 1453 ft | 154 kts | 274° |
| 2026-04-27 21:55 | 41.64712 | -87.43002 | 1459 ft | 155 kts | 272° |
| 2026-04-27 21:55 | 41.65104 | -87.44347 | 1438 ft | 158 kts | 282° |
| 2026-04-27 21:56 | 41.65660 | -87.45602 | 1457 ft | 159 kts | 294° |
| 2026-04-27 21:56 | 41.67262 | -87.47838 | 1464 ft | 167 kts | 306° |
| 2026-04-27 21:56 | 41.68050 | -87.48972 | 1456 ft | 164 kts | 304° |
| 2026-04-27 21:57 | 41.68821 | -87.50107 | 1447 ft | 162 kts | 303° |
| 2026-04-27 21:57 | 41.69652 | -87.51202 | 1447 ft | 167 kts | 305° |
| 2026-04-27 21:57 | 41.70473 | -87.52290 | 1451 ft | 164 kts | 303° |
| 2026-04-27 21:57 | 41.71247 | -87.53291 | 1443 ft | 166 kts | 308° |
| 2026-04-27 21:58 | 41.71979 | -87.54289 | 1454 ft | 162 kts | 307° |
| 2026-04-27 21:58 | 41.72746 | -87.55327 | 1450 ft | 165 kts | 304° |
| 2026-04-27 21:58 | 41.73516 | -87.56426 | 1450 ft | 161 kts | 302° |
| 2026-04-27 21:58 | 41.74247 | -87.57450 | 1443 ft | 164 kts | 305° |
| 2026-04-27 21:59 | 41.74954 | -87.58434 | 1446 ft | 163 kts | 304° |
| 2026-04-27 21:59 | 41.75687 | -87.59454 | 1450 ft | 165 kts | 303° |
| 2026-04-27 21:59 | 41.76423 | -87.60474 | 1437 ft | 164 kts | 306° |
| 2026-04-27 21:59 | 41.77158 | -87.61515 | 1454 ft | 163 kts | 303° |
| 2026-04-27 22:00 | 41.77927 | -87.62601 | 1452 ft | 163 kts | 305° |
| 2026-04-27 22:00 | 41.78992 | -87.63234 | 1406 ft | 169 kts | 352° |
| 2026-04-27 22:00 | 41.80127 | -87.63306 | 1429 ft | 169 kts | 357° |
| 2026-04-27 22:00 | 41.81285 | -87.63379 | 1460 ft | 168 kts | 357° |
| 2026-04-27 22:01 | 41.82429 | -87.63367 | 1406 ft | 170 kts | 360° |
| 2026-04-27 22:01 | 41.83572 | -87.63336 | 1333 ft | 164 kts | 1° |
| 2026-04-27 22:01 | 41.84581 | -87.63668 | 1229 ft | 149 kts | 316° |
| 2026-04-27 22:01 | 41.85118 | -87.64625 | 1124 ft | 131 kts | 291° |
| 2026-04-27 22:02 | 41.85511 | -87.65526 | 1070 ft | 105 kts | 290° |
| 2026-04-27 22:02 | 41.85852 | -87.66321 | 1006 ft | 94 kts | 296° |
| 2026-04-27 22:02 | 41.86238 | -87.66943 | 966 ft | 86 kts | 329° |
| 2026-04-27 22:02 | 41.86592 | -87.67375 | 890 ft | 48 kts | 243° |
| 2026-04-27 22:03 | 41.86425 | -87.67451 | 816 ft | 36 kts | 135° |
| 2026-04-27 22:03 | 41.86305 | -87.67191 | 721 ft | 26 kts | 130° |
| 2026-04-27 22:03 | 41.86229 | -87.67046 | 633 ft | 10 kts | 135° |
| 2026-04-27 22:03 | 41.86214 | -87.67029 | 597 ft | 0 kts | 168° |